AirNav   Air Wisconsin pilot careers
 
 1509 users online  

P91 Flying M Aerodrome
Germansville, Pennsylvania, USA

GOING TO GERMANSVILLE?


FAA INFORMATION EFFECTIVE 29 MARCH 2018

Location

FAA Identifier: P91
Lat/Long: 40-44-15.1100N / 075-42-19.5000W
40-44.251833N / 075-42.325000W
40.7375306 / -75.7054167
(estimated)
Elevation: 735 ft. / 224 m (estimated)
Variation: 11W (1985)
From city: 2 miles N of GERMANSVILLE, PA
Time zone: UTC -4 (UTC -5 during Standard Time)
Zip code: 18053

Airport Operations

Airport use: Open to the public
Activation date: 01/1974
Control tower: no
ARTCC: NEW YORK CENTER
FSS: WILLIAMSPORT FLIGHT SERVICE STATION
NOTAMs facility: IPT (NOTAM-D service available)
Attendance: IREG
Wind indicator: yes
Segmented circle: no

Airport Communications

CTAF/UNICOM: 122.725
WX AWOS-3PT at 22N (5 nm NW): 119.350 (570-386-3423)
WX ASOS at ABE (13 nm SE): PHONE 610-266-3579
WX AWOS-3 at XLL (14 nm SE): 127.875 (610-231-3111)
WX AWOS-3 at HZL (20 nm NW): 119.975 (570-459-4901)

Nearby radio navigation aids

VOR radial/distance  VOR name  Freq  Var
ETXr003/9.4EAST TEXAS VOR/DME110.2009W
FJCr283/11.4ALLENTOWN VORTAC117.5010W
PTWr357/31.6POTTSTOWN VORTAC116.5009W
LVZr191/32.1WILKES-BARRE VORTAC111.6010W

Airport Services

Parking: hangars and tiedowns
Airframe service: MINOR
Powerplant service: MINOR

Runway Information

Runway 8/26

Dimensions: 2380 x 100 ft. / 725 x 30 m
Surface: turf, in good condition
Runway edge markings: RY 08 /26 MKD WITH WHITE CONES.
RUNWAY 8  RUNWAY 26
Latitude: 40-44.186667N40-44.317000N
Longitude: 075-42.568000W075-42.082000W
Elevation: 726.0 ft.735.0 ft.
Gradient: 0.4% UP
Traffic pattern: leftleft
Displaced threshold: no300 ft.
DSPLCD THR MARKED WITH CONES & THREE LIGHTS EACH SIDE.
Touchdown point: yes, no lightsyes, no lights
Obstructions: none15 ft. road, 5 ft. from runway, 100 ft. left and right of centerline
RY 26 APCH SLOPE 20:1 TO DSPLCD THLD.

Airport Ownership and Management from official FAA records

Ownership: Privately-owned
Owner: LEHIGH LAND LEASING LTD
5363 MOUNTAIN RD, PO BOX 65
GERMANSVILLE, PA 18053
Phone 610-767-4133
Manager: PETER MANISCALCO
5363 MOUNTAIN RD, PO BOX 65
GERMANSVILLE, PA 18053-0065
Phone 610-248-8190

Airport Operational Statistics

Aircraft based on the field: 23
Single engine airplanes: 19
Multi engine airplanes: 1
Gliders airplanes: 2
Ultralights: 1
    
Aircraft operations: avg 24/day *
72% local general aviation
28% transient general aviation
<1% military
* for 12-month period ending 15 June 2017

Additional Remarks

FOR CD CTC ABE APCH AT 800-728-6322.

Instrument Procedures

There are no published instrument procedures at P91.

Some nearby airports with instrument procedures:

22N - Jake Arner Memorial Airport (5 nm NW)
KABE - Lehigh Valley International Airport (13 nm SE)
KXLL - Allentown Queen City Municipal Airport (14 nm SE)
KHZL - Hazleton Regional Airport (20 nm NW)
N43 - Braden Airpark (21 nm E)
 
Loc | Ops | Rwys | IFR | FBO | Links
Com | Nav | Svcs | Stats | Notes

AirNav Hotels Sweepstakes
 
Area around P91 (Flying M Aerodrome)
 
Road maps at: MapQuest Bing Google
 
Aerial photo
No photo
 
Sectional chart

 
Airport distance calculator
Flying to Flying M Aerodrome? Find the distance to fly.

From to P91

Sunrise and sunset
Times for 19-Apr-2018
 Local
(UTC-4)
 Zulu
(UTC)
Morning civil twilight05:5009:50
Sunrise06:1910:19
Sunset19:4523:45
Evening civil twilight20:1400:14

Current date and time
Zulu (UTC)  19-Apr-2018 14:06:53
Local (UTC-4)  19-Apr-2018 10:06:53
 
METAR
KABE 
13nm SE 
191351Z 02005KT 10SM OVC024 06/02 A2972 RMK AO2 SLP066 T00560017
KXLL 
14nm SE 
191355Z AUTO 01004KT 10SM SCT013 OVC023 05/03 A2973 RMK AO2
KHZL 
20nm NW 
191355Z AUTO 33005KT 2SM BR OVC003 01/00 A2972 RMK AO2 PNO
KUKT 
23nm SE 
191355Z AUTO 34005KT 10SM FEW010 OVC033 05/04 A2971 RMK A01
KRDG 
25nm SW 
191354Z 03003KT 10SM FEW009 OVC034 07/06 A2970 RMK AO2 SLP063 T00670056
TAF
KABE 
13nm SE 
191127Z 1912/2012 03008KT P6SM SCT006 OVC045 TEMPO 1912/1913 BKN008 FM191400 35008KT P6SM OVC025 FM191600 32008G16KT P6SM -SHRA OVC025 FM192000 31012G20KT P6SM BKN040 FM200600 31012G20KT P6SM SCT040
NOTAMs
Click for the latest NOTAMs
NOTAMs are issued by the DoD/FAA and will open in a separate window not controlled by AirNav.

 

 
 

Would you like to see your business listed on this page?

 If your business provides an interesting product or service to pilots, flight crews, aircraft, or users of the Flying M Aerodrome, you should consider listing it here.  To start the listing process, click on the button below
 
Add a business
 

Other Pages about Flying M Aerodrome

Update a link
 
Copyright © AirNav, LLC. All rights reserved. Privacy Policy  Contact